sensor_id;sensor_type;location;lat;lon;timestamp;P1;durP1;ratioP1;P2;durP2;ratioP2
9264;SDS011;4669;49.594;10.958;2023-07-24T04:28:54;10.13;;;8.90;;
9264;SDS011;4669;49.594;10.958;2023-07-24T04:33:56;10.27;;;7.95;;
9264;SDS011;4669;49.594;10.958;2023-07-24T04:38:58;10.65;;;9.02;;
9264;SDS011;4669;49.594;10.958;2023-07-24T04:44:01;10.60;;;8.30;;
9264;SDS011;4669;49.594;10.958;2023-07-24T04:49:03;11.52;;;9.23;;
9264;SDS011;4669;49.594;10.958;2023-07-24T04:54:05;10.13;;;8.55;;
9264;SDS011;4669;49.594;10.958;2023-07-24T04:59:08;10.23;;;8.52;;
9264;SDS011;4669;49.594;10.958;2023-07-24T05:04:10;12.45;;;9.60;;
9264;SDS011;4669;49.594;10.958;2023-07-24T05:09:11;10.23;;;8.45;;
9264;SDS011;4669;49.594;10.958;2023-07-24T05:14:15;11.10;;;8.48;;
9264;SDS011;4669;49.594;10.958;2023-07-24T05:19:17;9.30;;;8.40;;
9264;SDS011;4669;49.594;10.958;2023-07-24T05:24:19;10.35;;;9.05;;
9264;SDS011;4669;49.594;10.958;2023-07-24T05:29:22;10.45;;;8.65;;
9264;SDS011;4669;49.594;10.958;2023-07-24T05:34:24;10.85;;;8.77;;
9264;SDS011;4669;49.594;10.958;2023-07-24T05:39:26;10.43;;;8.65;;
9264;SDS011;4669;49.594;10.958;2023-07-24T05:44:29;10.52;;;9.02;;
9264;SDS011;4669;49.594;10.958;2023-07-24T05:49:33;18.88;;;14.38;;
9264;SDS011;4669;49.594;10.958;2023-07-24T05:54:35;13.73;;;9.50;;
9264;SDS011;4669;49.594;10.958;2023-07-24T05:59:38;16.08;;;9.15;;
9264;SDS011;4669;49.594;10.958;2023-07-24T06:04:40;10.13;;;8.77;;
9264;SDS011;4669;49.594;10.958;2023-07-24T06:09:41;11.95;;;9.27;;
9264;SDS011;4669;49.594;10.958;2023-07-24T06:14:45;9.63;;;8.63;;
9264;SDS011;4669;49.594;10.958;2023-07-24T06:19:46;11.02;;;8.68;;
9264;SDS011;4669;49.594;10.958;2023-07-24T06:24:48;10.57;;;8.63;;
9264;SDS011;4669;49.594;10.958;2023-07-24T06:29:52;16.17;;;9.95;;
9264;SDS011;4669;49.594;10.958;2023-07-24T06:34:54;12.80;;;8.85;;
9264;SDS011;4669;49.594;10.958;2023-07-24T06:39:56;11.63;;;8.40;;
9264;SDS011;4669;49.594;10.958;2023-07-24T06:45:00;9.00;;;7.80;;
9264;SDS011;4669;49.594;10.958;2023-07-24T06:50:02;12.38;;;8.52;;
9264;SDS011;4669;49.594;10.958;2023-07-24T06:55:05;9.40;;;8.40;;
9264;SDS011;4669;49.594;10.958;2023-07-24T07:00:09;11.85;;;8.52;;
9264;SDS011;4669;49.594;10.958;2023-07-24T07:05:12;12.18;;;9.15;;
9264;SDS011;4669;49.594;10.958;2023-07-24T07:10:14;9.35;;;8.35;;
9264;SDS011;4669;49.594;10.958;2023-07-24T07:15:17;11.07;;;8.80;;
9264;SDS011;4669;49.594;10.958;2023-07-24T07:20:19;14.25;;;8.63;;
9264;SDS011;4669;49.594;10.958;2023-07-24T07:25:21;12.73;;;9.27;;
9264;SDS011;4669;49.594;10.958;2023-07-24T07:30:24;11.23;;;8.40;;
9264;SDS011;4669;49.594;10.958;2023-07-24T07:35:26;10.98;;;8.55;;
9264;SDS011;4669;49.594;10.958;2023-07-24T07:40:28;9.98;;;8.15;;
9264;SDS011;4669;49.594;10.958;2023-07-24T07:45:32;12.57;;;9.13;;
9264;SDS011;4669;49.594;10.958;2023-07-24T07:50:33;10.15;;;8.27;;
9264;SDS011;4669;49.594;10.958;2023-07-24T07:55:35;11.07;;;8.98;;
9264;SDS011;4669;49.594;10.958;2023-07-24T08:00:38;12.35;;;9.57;;
9264;SDS011;4669;49.594;10.958;2023-07-24T08:05:41;13.85;;;9.48;;
9264;SDS011;4669;49.594;10.958;2023-07-24T08:10:42;15.40;;;9.15;;
9264;SDS011;4669;49.594;10.958;2023-07-24T08:15:46;15.25;;;9.13;;
9264;SDS011;4669;49.594;10.958;2023-07-24T08:20:48;11.10;;;8.57;;
9264;SDS011;4669;49.594;10.958;2023-07-24T08:25:53;9.75;;;8.45;;
9264;SDS011;4669;49.594;10.958;2023-07-24T08:30:57;11.30;;;8.75;;
9264;SDS011;4669;49.594;10.958;2023-07-24T08:36:00;14.40;;;9.98;;
9264;SDS011;4669;49.594;10.958;2023-07-24T08:41:03;12.70;;;9.30;;
9264;SDS011;4669;49.594;10.958;2023-07-24T08:46:07;11.02;;;8.65;;
9264;SDS011;4669;49.594;10.958;2023-07-24T08:51:10;14.23;;;8.73;;
9264;SDS011;4669;49.594;10.958;2023-07-24T08:56:13;14.00;;;9.52;;
9264;SDS011;4669;49.594;10.958;2023-07-24T09:01:17;13.45;;;9.07;;
9264;SDS011;4669;49.594;10.958;2023-07-24T09:06:18;13.93;;;9.43;;
9264;SDS011;4669;49.594;10.958;2023-07-24T09:11:20;10.68;;;8.95;;
9264;SDS011;4669;49.594;10.958;2023-07-24T09:16:24;9.48;;;8.32;;
9264;SDS011;4669;49.594;10.958;2023-07-24T09:21:27;13.93;;;8.98;;
9264;SDS011;4669;49.594;10.958;2023-07-24T09:26:29;12.63;;;9.27;;
9264;SDS011;4669;49.594;10.958;2023-07-24T09:31:36;11.55;;;9.02;;
9264;SDS011;4669;49.594;10.958;2023-07-24T09:36:38;10.20;;;8.80;;
9264;SDS011;4669;49.594;10.958;2023-07-24T09:41:40;14.00;;;9.35;;
9264;SDS011;4669;49.594;10.958;2023-07-24T09:46:43;15.40;;;9.65;;
9264;SDS011;4669;49.594;10.958;2023-07-24T09:51:46;14.00;;;9.05;;
9264;SDS011;4669;49.594;10.958;2023-07-24T09:56:51;15.63;;;9.75;;
9264;SDS011;4669;49.594;10.958;2023-07-24T10:01:55;13.38;;;10.02;;
9264;SDS011;4669;49.594;10.958;2023-07-24T10:06:57;13.52;;;9.85;;
9264;SDS011;4669;49.594;10.958;2023-07-24T10:11:59;11.05;;;9.25;;
9264;SDS011;4669;49.594;10.958;2023-07-24T10:17:04;14.25;;;9.52;;
9264;SDS011;4669;49.594;10.958;2023-07-24T10:22:06;13.05;;;10.00;;
9264;SDS011;4669;49.594;10.958;2023-07-24T10:27:08;13.18;;;9.82;;
9264;SDS011;4669;49.594;10.958;2023-07-24T10:32:18;13.07;;;9.50;;
9264;SDS011;4669;49.594;10.958;2023-07-24T10:37:20;11.77;;;8.75;;
9264;SDS011;4669;49.594;10.958;2023-07-24T10:42:33;14.23;;;9.85;;
9264;SDS011;4669;49.594;10.958;2023-07-24T10:47:36;12.32;;;9.15;;
9264;SDS011;4669;49.594;10.958;2023-07-24T10:52:38;11.68;;;9.20;;
9264;SDS011;4669;49.594;10.958;2023-07-24T10:57:41;12.30;;;9.25;;
9264;SDS011;4669;49.594;10.958;2023-07-24T11:02:44;10.90;;;9.35;;
9264;SDS011;4669;49.594;10.958;2023-07-24T11:07:46;9.95;;;8.82;;
9264;SDS011;4669;49.594;10.958;2023-07-24T11:12:49;13.02;;;9.15;;
9264;SDS011;4669;49.594;10.958;2023-07-24T11:17:53;10.45;;;8.77;;
9264;SDS011;4669;49.594;10.958;2023-07-24T11:22:57;10.82;;;9.73;;
9264;SDS011;4669;49.594;10.958;2023-07-24T11:27:59;17.80;;;13.90;;
9264;SDS011;4669;49.594;10.958;2023-07-24T11:33:03;16.98;;;13.98;;
9264;SDS011;4669;49.594;10.958;2023-07-24T11:38:09;15.23;;;11.88;;
9264;SDS011;4669;49.594;10.958;2023-07-24T11:43:15;14.40;;;10.55;;
9264;SDS011;4669;49.594;10.958;2023-07-24T11:48:20;12.90;;;10.18;;
9264;SDS011;4669;49.594;10.958;2023-07-24T11:53:23;13.35;;;10.50;;
9264;SDS011;4669;49.594;10.958;2023-07-24T11:58:26;12.43;;;9.68;;
9264;SDS011;4669;49.594;10.958;2023-07-24T12:03:30;12.45;;;9.25;;
9264;SDS011;4669;49.594;10.958;2023-07-24T12:08:33;11.70;;;9.50;;
9264;SDS011;4669;49.594;10.958;2023-07-24T12:13:35;10.63;;;9.27;;
9264;SDS011;4669;49.594;10.958;2023-07-24T12:18:39;10.07;;;8.93;;
9264;SDS011;4669;49.594;10.958;2023-07-24T12:23:41;11.93;;;10.10;;
9264;SDS011;4669;49.594;10.958;2023-07-24T12:28:42;10.52;;;8.45;;
9264;SDS011;4669;49.594;10.958;2023-07-24T12:33:46;10.65;;;8.57;;
9264;SDS011;4669;49.594;10.958;2023-07-24T12:38:48;9.80;;;8.18;;
9264;SDS011;4669;49.594;10.958;2023-07-24T12:43:49;9.70;;;8.10;;
9264;SDS011;4669;49.594;10.958;2023-07-24T12:48:53;10.90;;;7.95;;
9264;SDS011;4669;49.594;10.958;2023-07-24T12:53:55;8.80;;;7.30;;
9264;SDS011;4669;49.594;10.958;2023-07-24T12:58:57;8.85;;;6.95;;
9264;SDS011;4669;49.594;10.958;2023-07-24T13:04:00;7.57;;;6.28;;
9264;SDS011;4669;49.594;10.958;2023-07-24T13:09:02;8.85;;;6.97;;
9264;SDS011;4669;49.594;10.958;2023-07-24T13:14:05;6.82;;;6.22;;
9264;SDS011;4669;49.594;10.958;2023-07-24T13:19:08;7.88;;;6.13;;
9264;SDS011;4669;49.594;10.958;2023-07-24T13:24:10;6.78;;;5.97;;
9264;SDS011;4669;49.594;10.958;2023-07-24T13:29:12;6.93;;;5.63;;
9264;SDS011;4669;49.594;10.958;2023-07-24T13:34:15;8.00;;;6.38;;
9264;SDS011;4669;49.594;10.958;2023-07-24T13:39:22;7.70;;;6.00;;
9264;SDS011;4669;49.594;10.958;2023-07-24T13:44:28;6.38;;;5.50;;
9264;SDS011;4669;49.594;10.958;2023-07-24T13:49:31;6.47;;;5.70;;
9264;SDS011;4669;49.594;10.958;2023-07-24T13:54:33;6.18;;;5.57;;
9264;SDS011;4669;49.594;10.958;2023-07-24T13:59:36;8.05;;;6.47;;
9264;SDS011;4669;49.594;10.958;2023-07-24T14:04:46;6.30;;;5.65;;
9264;SDS011;4669;49.594;10.958;2023-07-24T14:09:48;6.35;;;5.65;;
9264;SDS011;4669;49.594;10.958;2023-07-24T14:14:50;6.47;;;5.00;;
9264;SDS011;4669;49.594;10.958;2023-07-24T14:19:53;7.60;;;5.28;;
9264;SDS011;4669;49.594;10.958;2023-07-24T14:24:56;5.00;;;4.47;;
9264;SDS011;4669;49.594;10.958;2023-07-24T14:29:57;7.65;;;5.82;;
9264;SDS011;4669;49.594;10.958;2023-07-24T14:35:01;5.45;;;4.95;;
9264;SDS011;4669;49.594;10.958;2023-07-24T14:40:03;5.32;;;4.82;;
9264;SDS011;4669;49.594;10.958;2023-07-24T14:45:06;6.47;;;5.10;;
9264;SDS011;4669;49.594;10.958;2023-07-24T14:50:10;5.30;;;4.80;;
9264;SDS011;4669;49.594;10.958;2023-07-24T14:55:12;6.50;;;5.25;;
9264;SDS011;4669;49.594;10.958;2023-07-24T15:00:16;5.57;;;5.03;;
9264;SDS011;4669;49.594;10.958;2023-07-24T15:05:19;5.57;;;4.20;;
9264;SDS011;4669;49.594;10.958;2023-07-24T15:10:21;8.02;;;4.97;;
9264;SDS011;4669;49.594;10.958;2023-07-24T15:15:23;5.03;;;4.53;;
9264;SDS011;4669;49.594;10.958;2023-07-24T15:20:27;5.78;;;4.78;;
9264;SDS011;4669;49.594;10.958;2023-07-24T15:25:29;6.75;;;4.75;;
9264;SDS011;4669;49.594;10.958;2023-07-24T15:30:31;6.18;;;4.63;;
9264;SDS011;4669;49.594;10.958;2023-07-24T15:35:34;6.80;;;4.70;;
9264;SDS011;4669;49.594;10.958;2023-07-24T15:40:37;6.13;;;4.53;;
9264;SDS011;4669;49.594;10.958;2023-07-24T15:45:39;5.03;;;4.53;;
9264;SDS011;4669;49.594;10.958;2023-07-24T15:50:43;5.60;;;4.55;;
9264;SDS011;4669;49.594;10.958;2023-07-24T15:55:45;5.25;;;4.20;;
9264;SDS011;4669;49.594;10.958;2023-07-24T16:00:46;5.88;;;4.97;;
9264;SDS011;4669;49.594;10.958;2023-07-24T16:05:50;5.78;;;5.18;;
9264;SDS011;4669;49.594;10.958;2023-07-24T16:10:51;5.85;;;4.93;;
9264;SDS011;4669;49.594;10.958;2023-07-24T16:15:54;5.80;;;5.07;;
9264;SDS011;4669;49.594;10.958;2023-07-24T16:20:57;5.63;;;5.03;;
9264;SDS011;4669;49.594;10.958;2023-07-24T16:25:59;6.63;;;5.05;;
9264;SDS011;4669;49.594;10.958;2023-07-24T16:31:01;7.00;;;6.40;;
9264;SDS011;4669;49.594;10.958;2023-07-24T16:36:04;6.25;;;5.60;;
9264;SDS011;4669;49.594;10.958;2023-07-24T16:41:06;6.28;;;5.63;;
9264;SDS011;4669;49.594;10.958;2023-07-24T16:46:08;6.35;;;4.88;;
9264;SDS011;4669;49.594;10.958;2023-07-24T16:51:16;5.95;;;5.10;;
9264;SDS011;4669;49.594;10.958;2023-07-24T16:56:24;6.05;;;5.15;;
9264;SDS011;4669;49.594;10.958;2023-07-24T17:01:37;5.95;;;5.20;;
9264;SDS011;4669;49.594;10.958;2023-07-24T17:06:49;7.50;;;6.05;;
9264;SDS011;4669;49.594;10.958;2023-07-24T17:11:54;7.63;;;5.95;;
9264;SDS011;4669;49.594;10.958;2023-07-24T17:16:58;7.07;;;5.47;;
9264;SDS011;4669;49.594;10.958;2023-07-24T17:22:18;7.63;;;6.28;;
9264;SDS011;4669;49.594;10.958;2023-07-24T17:27:23;7.00;;;6.05;;
9264;SDS011;4669;49.594;10.958;2023-07-24T17:32:25;11.25;;;6.65;;
9264;SDS011;4669;49.594;10.958;2023-07-24T17:37:28;11.35;;;6.75;;
9264;SDS011;4669;49.594;10.958;2023-07-24T17:42:33;8.90;;;6.10;;
9264;SDS011;4669;49.594;10.958;2023-07-24T17:47:35;9.27;;;4.97;;
9264;SDS011;4669;49.594;10.958;2023-07-24T17:52:39;8.05;;;5.70;;
9264;SDS011;4669;49.594;10.958;2023-07-24T17:57:41;9.20;;;5.22;;
9264;SDS011;4669;49.594;10.958;2023-07-24T18:02:44;5.15;;;3.67;;
9264;SDS011;4669;49.594;10.958;2023-07-24T18:07:47;4.65;;;3.05;;
9264;SDS011;4669;49.594;10.958;2023-07-24T18:12:49;4.78;;;3.30;;
9264;SDS011;4669;49.594;10.958;2023-07-24T18:17:51;4.97;;;2.70;;
9264;SDS011;4669;49.594;10.958;2023-07-24T18:22:54;3.63;;;2.85;;
9264;SDS011;4669;49.594;10.958;2023-07-24T18:27:56;2.53;;;2.33;;
9264;SDS011;4669;49.594;10.958;2023-07-24T18:32:58;4.25;;;2.63;;
9264;SDS011;4669;49.594;10.958;2023-07-24T18:38:02;3.95;;;2.22;;
9264;SDS011;4669;49.594;10.958;2023-07-24T18:43:03;4.07;;;2.50;;
9264;SDS011;4669;49.594;10.958;2023-07-24T18:48:05;4.00;;;2.83;;
9264;SDS011;4669;49.594;10.958;2023-07-24T18:53:10;4.38;;;3.10;;
9264;SDS011;4669;49.594;10.958;2023-07-24T18:58:12;6.07;;;3.10;;
9264;SDS011;4669;49.594;10.958;2023-07-24T19:03:14;10.40;;;3.47;;
9264;SDS011;4669;49.594;10.958;2023-07-24T19:08:17;3.95;;;3.05;;
9264;SDS011;4669;49.594;10.958;2023-07-24T19:13:19;4.28;;;2.90;;
9264;SDS011;4669;49.594;10.958;2023-07-24T19:18:23;3.90;;;3.20;;
9264;SDS011;4669;49.594;10.958;2023-07-24T19:23:26;4.55;;;3.28;;
9264;SDS011;4669;49.594;10.958;2023-07-24T19:28:28;5.40;;;2.97;;
9264;SDS011;4669;49.594;10.958;2023-07-24T19:33:30;5.03;;;3.15;;
9264;SDS011;4669;49.594;10.958;2023-07-24T19:38:33;4.78;;;3.30;;
9264;SDS011;4669;49.594;10.958;2023-07-24T19:43:35;5.28;;;3.88;;
9264;SDS011;4669;49.594;10.958;2023-07-24T19:48:37;4.30;;;3.53;;
9264;SDS011;4669;49.594;10.958;2023-07-24T19:53:40;5.43;;;3.72;;
9264;SDS011;4669;49.594;10.958;2023-07-24T19:58:42;3.97;;;3.30;;
9264;SDS011;4669;49.594;10.958;2023-07-24T20:03:44;4.47;;;3.55;;
9264;SDS011;4669;49.594;10.958;2023-07-24T20:08:47;5.22;;;3.70;;
9264;SDS011;4669;49.594;10.958;2023-07-24T20:13:49;7.05;;;4.15;;
9264;SDS011;4669;49.594;10.958;2023-07-24T20:18:51;4.05;;;3.65;;
9264;SDS011;4669;49.594;10.958;2023-07-24T20:23:54;4.32;;;3.72;;
9264;SDS011;4669;49.594;10.958;2023-07-24T20:28:56;4.78;;;3.75;;
9264;SDS011;4669;49.594;10.958;2023-07-24T20:33:58;5.60;;;4.20;;
9264;SDS011;4669;49.594;10.958;2023-07-24T20:39:01;4.53;;;3.30;;
9264;SDS011;4669;49.594;10.958;2023-07-24T20:44:03;3.72;;;3.33;;
9264;SDS011;4669;49.594;10.958;2023-07-24T20:49:05;3.60;;;3.30;;
9264;SDS011;4669;49.594;10.958;2023-07-24T20:54:14;4.78;;;3.75;;
9264;SDS011;4669;49.594;10.958;2023-07-24T20:59:16;5.15;;;3.60;;
9264;SDS011;4669;49.594;10.958;2023-07-24T21:04:18;3.95;;;3.60;;
9264;SDS011;4669;49.594;10.958;2023-07-24T21:09:21;3.90;;;3.60;;
9264;SDS011;4669;49.594;10.958;2023-07-24T21:14:23;3.90;;;3.30;;
9264;SDS011;4669;49.594;10.958;2023-07-24T21:19:25;3.83;;;3.42;;
9264;SDS011;4669;49.594;10.958;2023-07-24T21:24:28;4.15;;;2.90;;
9264;SDS011;4669;49.594;10.958;2023-07-24T21:29:30;3.75;;;3.40;;
9264;SDS011;4669;49.594;10.958;2023-07-24T21:34:32;4.10;;;3.13;;
9264;SDS011;4669;49.594;10.958;2023-07-24T21:39:36;4.25;;;3.45;;
9264;SDS011;4669;49.594;10.958;2023-07-24T21:44:38;4.38;;;3.15;;
9264;SDS011;4669;49.594;10.958;2023-07-24T21:49:39;5.13;;;3.40;;
9264;SDS011;4669;49.594;10.958;2023-07-24T21:54:43;3.47;;;2.83;;
9264;SDS011;4669;49.594;10.958;2023-07-24T21:59:44;5.10;;;3.22;;
